Time;durP1;ratioP1;P1;durP2;ratioP2;P2;SDS_P1;SDS_P2;PMS_P1;PMS_P2;Temp;Humidity;BMP_temperature;BMP_pressure;BME280_temperature;BME280_humidity;BME280_pressure;Samples;Min_cycle;Max_cycle;Signal;HPM_P1;HPM_P2
2023/07/15 00:02:25;;;;;;;;;;;;;;;21.30;55.51;98848.38;10246490;28;863;-67
2023/07/15 00:07:21;;;;;;;;;;;;;;;21.30;55.25;98836.91;10247014;28;928;-68
2023/07/15 00:12:16;;;;;;;;;;;;;;;21.30;55.29;98837.78;10246147;28;1894;-67
2023/07/15 00:17:13;;;;;;;;;;;;;;;21.30;55.41;98834.25;10245433;28;894;-68
2023/07/15 00:22:10;;;;;;;;;;;;;;;21.30;55.45;98831.59;10246395;28;1203;-67
2023/07/15 00:27:06;;;;;;;;;;;;;;;21.31;55.32;98833.31;10245562;28;913;-67
2023/07/15 00:32:04;;;;;;;;;;;;;;;21.30;55.28;98836.91;10245322;28;1906;-68
2023/07/15 00:37:00;;;;;;;;;;;;;;;21.31;55.30;98841.25;10245366;28;802;-67
2023/07/15 00:41:56;;;;;;;;;;;;;;;21.30;55.26;98847.50;10245783;28;896;-68
2023/07/15 00:46:52;;;;;;;;;;;;;;;21.31;55.15;98839.47;10244816;28;841;-68
2023/07/15 00:51:48;;;;;;;;;;;;;;;21.30;55.32;98832.47;10245613;28;1971;-67
2023/07/15 00:56:47;;;;;;;;;;;;;;;21.30;55.19;98829.81;10245502;28;987;-68
2023/07/15 01:01:42;;;;;;;;;;;;;;;21.31;55.11;98833.31;10245106;28;804;-68
2023/07/15 01:06:41;;;;;;;;;;;;;;;21.29;55.33;98828.09;10244333;28;775;-68
2023/07/15 01:11:37;;;;;;;;;;;;;;;21.30;55.22;98818.34;10245109;28;794;-68
2023/07/15 01:16:33;;;;;;;;;;;;;;;21.31;55.17;98830.66;10244718;28;1964;-68
2023/07/15 01:21:29;;;;;;;;;;;;;;;21.30;55.11;98819.22;10244098;28;1390;-68
2023/07/15 01:26:25;;;;;;;;;;;;;;;21.30;55.25;98811.25;10244178;28;934;-68
2023/07/15 01:31:21;;;;;;;;;;;;;;;21.31;55.21;98817.41;10243885;28;781;-68
2023/07/15 01:36:16;;;;;;;;;;;;;;;21.32;55.05;98808.47;10244458;28;1922;-67
2023/07/15 01:41:12;;;;;;;;;;;;;;;21.31;55.17;98820.91;10243659;28;866;-68
2023/07/15 01:46:08;;;;;;;;;;;;;;;21.31;55.00;98815.59;10244216;28;929;-67
2023/07/15 01:51:04;;;;;;;;;;;;;;;21.30;55.23;98813.91;10243549;28;790;-68
2023/07/15 01:56:00;;;;;;;;;;;;;;;21.31;55.16;98810.28;10242771;28;1959;-68
2023/07/15 02:00:56;;;;;;;;;;;;;;;21.30;54.98;98808.63;10250775;28;943;-68
2023/07/15 02:05:52;;;;;;;;;;;;;;;21.30;55.15;98803.31;10251654;28;953;-68
2023/07/15 02:10:48;;;;;;;;;;;;;;;21.30;55.08;98798.00;10250747;28;859;-67
2023/07/15 02:15:44;;;;;;;;;;;;;;;21.30;55.09;98790.06;10250597;28;1906;-67
2023/07/15 02:20:40;;;;;;;;;;;;;;;21.31;54.92;98788.25;10250207;28;1270;-68
2023/07/15 02:25:36;;;;;;;;;;;;;;;21.30;54.96;98779.47;10251138;28;914;-67
2023/07/15 02:30:32;;;;;;;;;;;;;;;21.31;55.05;98782.94;10250125;28;755;-68
2023/07/15 02:35:28;;;;;;;;;;;;;;;21.30;54.98;98773.28;10250642;28;1914;-68
2023/07/15 02:40:25;;;;;;;;;;;;;;;21.30;55.09;98771.50;10249587;28;873;-68
2023/07/15 02:45:21;;;;;;;;;;;;;;;21.29;54.99;98767.16;10249643;28;766;-68
2023/07/15 02:50:18;;;;;;;;;;;;;;;21.29;54.97;98761.84;10250067;28;845;-68
2023/07/15 02:55:14;;;;;;;;;;;;;;;21.30;54.88;98768.84;10249590;28;1894;-68
2023/07/15 03:00:15;;;;;;;;;;;;;;;21.29;55.02;98764.50;10249003;28;925;-67
2023/07/15 03:05:11;;;;;;;;;;;;;;;21.31;54.82;98767.03;10248891;28;859;-68
2023/07/15 03:10:07;;;;;;;;;;;;;;;21.31;54.82;98772.34;10248477;28;856;-67
2023/07/15 03:15:02;;;;;;;;;;;;;;;21.30;54.86;98768.00;10248564;28;1955;-68
2023/07/15 03:19:59;;;;;;;;;;;;;;;21.30;54.95;98768.84;10248247;28;954;-68
2023/07/15 03:24:54;;;;;;;;;;;;;;;21.30;54.92;98768.84;10247982;28;1389;-68
2023/07/15 03:29:51;;;;;;;;;;;;;;;21.29;54.77;98768.97;10247299;28;818;-68
2023/07/15 03:34:47;;;;;;;;;;;;;;;21.29;54.97;98767.16;10248261;28;1971;-68
2023/07/15 03:39:43;;;;;;;;;;;;;;;21.30;54.79;98765.34;10248170;28;1001;-68
2023/07/15 03:44:39;;;;;;;;;;;;;;;21.29;54.80;98767.16;10247955;28;918;-68
2023/07/15 03:49:35;;;;;;;;;;;;;;;21.29;54.86;98771.59;10247750;28;838;-67
2023/07/15 03:54:30;;;;;;;;;;;;;;;21.29;54.83;98767.16;10247427;28;1988;-68
2023/07/15 03:59:26;;;;;;;;;;;;;;;21.29;54.63;98768.97;10246810;28;798;-67
2023/07/15 04:04:22;;;;;;;;;;;;;;;21.29;54.58;98767.16;10245939;28;889;-67
2023/07/15 04:09:18;;;;;;;;;;;;;;;21.29;54.82;98774.25;10247110;28;850;-68
2023/07/15 04:14:14;;;;;;;;;;;;;;;21.29;54.75;98774.25;10245543;28;1957;-68
2023/07/15 04:19:10;;;;;;;;;;;;;;;21.29;54.59;98769.78;10246170;28;840;-68
2023/07/15 04:24:06;;;;;;;;;;;;;;;21.28;54.69;98778.72;10245686;28;1386;-67
2023/07/15 04:29:02;;;;;;;;;;;;;;;21.29;54.58;98779.56;10245687;28;1033;-68
2023/07/15 04:33:57;;;;;;;;;;;;;;;21.29;54.64;98775.09;10245767;28;1982;-68
2023/07/15 04:38:53;;;;;;;;;;;;;;;21.30;54.75;98770.63;10245929;28;928;-67
2023/07/15 04:43:49;;;;;;;;;;;;;;;21.30;54.70;98773.28;10245302;28;964;-69
2023/07/15 04:48:45;;;;;;;;;;;;;;;21.31;54.74;98764.41;10244982;28;763;-67
2023/07/15 04:53:43;;;;;;;;;;;;;;;21.32;54.63;98777.53;10244861;28;1963;-68
2023/07/15 04:58:39;;;;;;;;;;;;;;;21.31;54.56;98782.94;10244772;28;773;-68
2023/07/15 05:03:35;;;;;;;;;;;;;;;21.31;54.69;98775.00;10244569;28;868;-68
2023/07/15 05:08:31;;;;;;;;;;;;;;;21.31;54.40;98770.53;10244377;28;851;-68
2023/07/15 05:13:26;;;;;;;;;;;;;;;21.32;54.68;98771.38;10244659;28;1965;-68
2023/07/15 05:18:22;;;;;;;;;;;;;;;21.32;54.63;98769.56;10244190;28;877;-67
2023/07/15 05:23:18;;;;;;;;;;;;;;;21.33;54.53;98768.63;10243663;28;1177;-67
2023/07/15 05:28:14;;;;;;;;;;;;;;;21.32;54.66;98764.25;10243229;28;985;-67
2023/07/15 05:33:10;;;;;;;;;;;;;;;21.32;54.83;98755.47;10247082;28;1977;-68
2023/07/15 05:38:06;;;;;;;;;;;;;;;21.33;54.79;98762.50;10252191;28;854;-67
2023/07/15 05:43:02;;;;;;;;;;;;;;;21.33;54.79;98768.63;10252530;28;969;-67
2023/07/15 05:47:57;;;;;;;;;;;;;;;21.34;54.72;98780.06;10252329;28;1061;-68
2023/07/15 05:52:53;;;;;;;;;;;;;;;21.33;54.77;98773.09;10252609;28;1955;-68
2023/07/15 05:57:49;;;;;;;;;;;;;;;21.32;55.01;98774.88;10252162;28;963;-67
2023/07/15 06:02:45;;;;;;;;;;;;;;;21.34;54.83;98780.06;10251352;28;809;-68
2023/07/15 06:07:41;;;;;;;;;;;;;;;21.36;54.71;98779.00;10250572;28;961;-67
2023/07/15 06:12:37;;;;;;;;;;;;;;;21.37;54.77;98770.06;10250759;28;1905;-68
2023/07/15 06:17:33;;;;;;;;;;;;;;;21.37;54.81;98766.59;10250738;28;1011;-68
2023/07/15 06:22:29;;;;;;;;;;;;;;;21.37;54.77;98766.59;10251241;28;1412;-68
2023/07/15 06:27:25;;;;;;;;;;;;;;;21.38;54.64;98768.31;10250278;28;1021;-68
2023/07/15 06:32:21;;;;;;;;;;;;;;;21.37;54.57;98762.13;10250638;28;1981;-68
2023/07/15 06:37:17;;;;;;;;;;;;;;;21.38;54.82;98771.81;10250228;28;917;-68
2023/07/15 06:42:12;;;;;;;;;;;;;;;21.38;54.62;98774.47;10249991;28;841;-67
2023/07/15 06:47:08;;;;;;;;;;;;;;;21.38;54.71;98761.22;10249703;28;767;-67
2023/07/15 06:52:04;;;;;;;;;;;;;;;21.39;54.84;98762.06;10248673;28;1969;-67
2023/07/15 06:57:00;;;;;;;;;;;;;;;21.39;54.85;98762.06;10250151;28;948;-67
2023/07/15 07:01:56;;;;;;;;;;;;;;;21.40;54.84;98764.56;10231809;28;857;-68
2023/07/15 07:06:52;;;;;;;;;;;;;;;21.40;54.67;98777.81;10248771;28;891;-64
2023/07/15 07:11:48;;;;;;;;;;;;;;;21.41;54.69;98782.19;10248584;28;784;-64
2023/07/15 07:16:44;;;;;;;;;;;;;;;21.42;54.69;98781.22;10246821;28;1961;-64
2023/07/15 07:21:40;;;;;;;;;;;;;;;21.43;54.62;98782.94;10248297;28;1110;-64
2023/07/15 07:26:36;;;;;;;;;;;;;;;21.42;54.80;98767.97;10248021;28;878;-64
2023/07/15 07:31:32;;;;;;;;;;;;;;;21.42;54.59;98767.97;10248131;28;972;-64
2023/07/15 07:36:28;;;;;;;;;;;;;;;21.43;54.38;98790.00;10246936;28;1922;-64
2023/07/15 07:41:24;;;;;;;;;;;;;;;21.43;54.33;98780.28;10247493;28;859;-64
2023/07/15 07:46:20;;;;;;;;;;;;;;;21.43;54.40;98788.22;10247356;28;845;-64
2023/07/15 07:51:16;;;;;;;;;;;;;;;21.43;54.12;98806.78;10247746;28;938;-67
2023/07/15 07:56:12;;;;;;;;;;;;;;;21.43;54.14;98798.84;10246188;28;1906;-67
2023/07/15 08:01:08;;;;;;;;;;;;;;;21.43;54.30;98803.28;10247407;28;791;-67
2023/07/15 08:06:04;;;;;;;;;;;;;;;21.42;54.32;98805.09;10246421;28;834;-67
2023/07/15 08:11:00;;;;;;;;;;;;;;;21.42;54.16;98809.53;10246363;28;875;-67
2023/07/15 08:15:56;;;;;;;;;;;;;;;21.41;54.25;98832.56;10246168;28;1962;-67
2023/07/15 08:20:51;;;;;;;;;;;;;;;21.42;54.30;98836.91;10245836;28;1311;-67
2023/07/15 08:25:47;;;;;;;;;;;;;;;21.43;54.40;98832.44;10246551;28;873;-66
2023/07/15 08:30:43;;;;;;;;;;;;;;;21.42;54.29;98838.72;10246290;28;791;-66
2023/07/15 08:35:40;;;;;;;;;;;;;;;21.43;54.27;98859.81;10245804;28;1981;-67
2023/07/15 08:40:36;;;;;;;;;;;;;;;21.43;54.35;98873.06;10245232;28;884;-67
2023/07/15 08:45:32;;;;;;;;;;;;;;;21.42;54.39;98855.44;10246088;28;808;-67
2023/07/15 08:50:28;;;;;;;;;;;;;;;21.43;54.52;98865.13;10244401;28;838;-67
2023/07/15 08:55:24;;;;;;;;;;;;;;;21.44;54.22;98860.66;10245346;28;1967;-67
2023/07/15 09:00:19;;;;;;;;;;;;;;;21.44;54.26;98897.78;10245874;28;865;-66
2023/07/15 09:05:15;;;;;;;;;;;;;;;21.44;54.52;98908.38;10244385;28;774;-67
2023/07/15 09:10:11;;;;;;;;;;;;;;;21.43;54.36;98919.91;10244553;28;779;-67
2023/07/15 09:15:07;;;;;;;;;;;;;;;21.44;54.45;98950.78;10245076;28;1898;-65
2023/07/15 09:20:04;;;;;;;;;;;;;;;21.44;54.47;98946.34;10244788;28;965;-65
2023/07/15 09:25:00;;;;;;;;;;;;;;;21.45;54.53;98948.03;10244435;28;1265;-67
2023/07/15 09:29:56;;;;;;;;;;;;;;;21.46;54.40;98962.16;10244737;28;842;-67
2023/07/15 09:34:55;;;;;;;;;;;;;;;21.45;54.58;99001.03;10244387;28;1910;-67
2023/07/15 09:39:50;;;;;;;;;;;;;;;21.45;54.58;98995.75;10243210;28;936;-67
2023/07/15 09:44:46;;;;;;;;;;;;;;;21.44;54.68;98991.41;10243715;28;923;-67
2023/07/15 09:49:42;;;;;;;;;;;;;;;21.45;54.74;99011.66;10244025;28;795;-67
2023/07/15 09:54:38;;;;;;;;;;;;;;;21.45;54.81;99021.41;10243973;28;1897;-67
2023/07/15 09:59:34;;;;;;;;;;;;;;;21.45;54.93;99058.53;10243475;28;881;-67
2023/07/15 10:04:30;;;;;;;;;;;;;;;21.46;55.00;99052.28;10243657;28;783;-67
2023/07/15 10:09:25;;;;;;;;;;;;;;;21.46;55.01;99060.25;10243250;28;833;-67
2023/07/15 10:14:21;;;;;;;;;;;;;;;21.45;54.99;99032.88;10243885;28;1901;-67
2023/07/15 10:19:17;;;;;;;;;;;;;;;21.45;55.18;99002.84;10247002;28;837;-67
2023/07/15 10:24:13;;;;;;;;;;;;;;;21.44;55.25;98983.47;10250453;28;1296;-67
2023/07/15 10:29:09;;;;;;;;;;;;;;;21.43;55.40;98960.56;10250342;28;837;-67
2023/07/15 10:34:05;;;;;;;;;;;;;;;21.44;55.47;98953.44;10250120;28;1971;-67
2023/07/15 10:39:01;;;;;;;;;;;;;;;21.44;55.36;98932.25;10250553;28;887;-67
2023/07/15 10:43:56;;;;;;;;;;;;;;;21.44;55.54;98930.44;10250393;28;867;-67
2023/07/15 10:48:52;;;;;;;;;;;;;;;21.45;55.54;98936.56;10250201;28;810;-67
2023/07/15 10:53:48;;;;;;;;;;;;;;;21.44;55.50;98938.38;10250376;28;1902;-67
2023/07/15 10:58:44;;;;;;;;;;;;;;;21.44;55.56;98934.88;10249820;28;1012;-67
2023/07/15 11:03:41;;;;;;;;;;;;;;;21.44;55.58;98909.22;10248434;28;995;-67
2023/07/15 11:08:38;;;;;;;;;;;;;;;21.44;55.60;98906.56;10249467;28;810;-67
2023/07/15 11:13:34;;;;;;;;;;;;;;;21.45;55.69;98904.75;10248528;28;1945;-67
2023/07/15 11:18:30;;;;;;;;;;;;;;;21.44;55.74;98919.81;10248510;28;780;-74
2023/07/15 11:23:26;;;;;;;;;;;;;;;21.46;55.76;98919.72;10248756;28;1372;-67
2023/07/15 11:28:22;;;;;;;;;;;;;;;21.45;55.48;98925.97;10248080;28;936;-67
2023/07/15 11:33:18;;;;;;;;;;;;;;;21.45;55.58;98913.56;10247860;28;1972;-67
2023/07/15 11:38:14;;;;;;;;;;;;;;;21.45;55.64;98884.38;10247124;28;1015;-67
2023/07/15 11:43:10;;;;;;;;;;;;;;;21.45;55.74;98886.19;10247495;28;858;-68
2023/07/15 11:48:05;;;;;;;;;;;;;;;21.44;55.82;98880.06;10247148;28;811;-67
2023/07/15 11:53:02;;;;;;;;;;;;;;;21.45;55.75;98884.38;10246740;28;1949;-67
2023/07/15 11:57:58;;;;;;;;;;;;;;;21.47;55.64;98896.72;10246861;28;869;-67
2023/07/15 12:02:54;;;;;;;;;;;;;;;21.46;55.79;98890.56;10247171;28;797;-67
2023/07/15 12:07:50;;;;;;;;;;;;;;;21.46;55.83;98879.97;10246288;28;758;-67
2023/07/15 12:12:46;;;;;;;;;;;;;;;21.48;55.64;98882.47;10245326;28;1957;-67
2023/07/15 12:17:42;;;;;;;;;;;;;;;21.49;55.49;98873.59;10245144;28;973;-67
2023/07/15 12:22:38;;;;;;;;;;;;;;;21.48;55.39;98872.72;10244046;28;1132;-67
2023/07/15 12:27:34;;;;;;;;;;;;;;;21.50;55.52;98864.66;10245268;28;976;-67
2023/07/15 12:32:30;;;;;;;;;;;;;;;21.50;55.62;98862.84;10246044;28;1973;-67
2023/07/15 12:37:25;;;;;;;;;;;;;;;21.51;55.49;98866.34;10245127;28;777;-67
2023/07/15 12:42:21;;;;;;;;;;;;;;;21.52;55.57;98852.97;10244731;28;961;-66
2023/07/15 12:47:18;;;;;;;;;;;;;;;21.51;55.43;98848.66;10244440;28;1147;-67
2023/07/15 12:52:14;;;;;;;;;;;;;;;21.52;55.68;98841.53;10244599;28;1914;-67
2023/07/15 12:57:10;;;;;;;;;;;;;;;21.51;55.51;98822.13;10244589;28;764;-67
2023/07/15 13:02:06;;;;;;;;;;;;;;;21.53;55.61;98829.97;10244359;28;822;-68
2023/07/15 13:07:02;;;;;;;;;;;;;;;21.53;55.64;98829.97;10244576;28;847;-67
2023/07/15 13:11:58;;;;;;;;;;;;;;;21.53;55.66;98830.81;10243499;28;819;-67
2023/07/15 13:16:53;;;;;;;;;;;;;;;21.53;55.84;98829.97;10244199;28;1894;-66
2023/07/15 13:21:49;;;;;;;;;;;;;;;21.53;55.83;98833.44;10245067;28;1344;-67
2023/07/15 13:26:45;;;;;;;;;;;;;;;21.53;55.68;98841.41;10243147;28;1333;-67
2023/07/15 13:31:41;;;;;;;;;;;;;;;21.53;55.74;98844.06;10243696;28;867;-67
2023/07/15 13:36:39;;;;;;;;;;;;;;;21.54;55.79;98856.38;10243781;28;1917;-67
2023/07/15 13:41:35;;;;;;;;;;;;;;;21.54;55.94;98868.78;10243392;28;778;-67
2023/07/15 13:46:30;;;;;;;;;;;;;;;21.54;55.93;98807.81;10244368;28;881;-67
2023/07/15 13:51:26;;;;;;;;;;;;;;;21.53;55.79;98745.13;10244172;28;856;-67
2023/07/15 13:56:22;;;;;;;;;;;;;;;21.53;55.80;98817.53;10249371;28;1961;-67
2023/07/15 14:01:18;;;;;;;;;;;;;;;21.54;56.00;98848.44;10251425;28;841;-67
2023/07/15 14:06:14;;;;;;;;;;;;;;;21.54;56.08;98869.63;10251015;28;772;-67
2023/07/15 14:11:10;;;;;;;;;;;;;;;21.56;55.81;98859.78;10250722;28;878;-68
2023/07/15 14:16:06;;;;;;;;;;;;;;;21.55;55.94;98862.53;10250434;28;1947;-67
2023/07/15 14:21:02;;;;;;;;;;;;;;;21.55;55.85;98878.44;10250318;28;1134;-68
2023/07/15 14:25:58;;;;;;;;;;;;;;;21.54;56.07;98843.13;10250190;28;833;-68
2023/07/15 14:30:54;;;;;;;;;;;;;;;21.55;56.05;98836.84;10250617;28;830;-67
2023/07/15 14:35:50;;;;;;;;;;;;;;;21.56;56.03;98840.34;10249870;28;1910;-67
2023/07/15 14:40:46;;;;;;;;;;;;;;;21.56;56.06;98833.25;10250262;28;790;-67
2023/07/15 14:45:42;;;;;;;;;;;;;;;21.56;56.00;98835.03;10250605;28;857;-67
2023/07/15 14:50:38;;;;;;;;;;;;;;;21.56;55.77;98835.03;10249333;28;763;-68
2023/07/15 14:55:34;;;;;;;;;;;;;;;21.56;55.97;98838.56;10248910;28;1894;-68
2023/07/15 15:00:30;;;;;;;;;;;;;;;21.57;56.02;98823.50;10249864;28;815;-67
2023/07/15 15:05:26;;;;;;;;;;;;;;;21.58;55.92;98852.53;10248618;28;1141;-67
2023/07/15 15:10:22;;;;;;;;;;;;;;;21.57;55.79;98842.06;10249471;28;894;-67
2023/07/15 15:15:18;;;;;;;;;;;;;;;21.58;55.75;98849.88;10249030;28;1951;-68
2023/07/15 15:20:14;;;;;;;;;;;;;;;21.57;55.83;98840.25;10249302;28;787;-67
2023/07/15 15:25:10;;;;;;;;;;;;;;;21.59;55.83;98842.78;10248087;28;1373;-67
2023/07/15 15:30:06;;;;;;;;;;;;;;;21.59;55.94;98861.34;10248127;28;775;-68
2023/07/15 15:35:02;;;;;;;;;;;;;;;21.60;55.90;98855.91;10247943;28;1895;-67
2023/07/15 15:39:58;;;;;;;;;;;;;;;21.60;55.88;98850.63;10247737;28;902;-67
2023/07/15 15:44:53;;;;;;;;;;;;;;;21.60;56.09;98840.00;10247618;28;853;-67
2023/07/15 15:49:49;;;;;;;;;;;;;;;21.60;56.23;98828.56;10247386;28;871;-67
2023/07/15 15:54:45;;;;;;;;;;;;;;;21.60;56.21;98829.41;10246499;28;1898;-68
2023/07/15 15:59:41;;;;;;;;;;;;;;;21.61;56.19;98809.91;10247569;28;853;-68
2023/07/15 16:04:37;;;;;;;;;;;;;;;21.61;56.10;98817.84;10246809;28;765;-66
2023/07/15 16:09:33;;;;;;;;;;;;;;;21.63;56.28;98813.25;10246567;28;798;-65
2023/07/15 16:14:29;;;;;;;;;;;;;;;21.62;56.08;98811.56;10246339;28;1898;-67
2023/07/15 16:19:25;;;;;;;;;;;;;;;21.62;56.09;98789.53;10245528;28;944;-67
2023/07/15 16:24:21;;;;;;;;;;;;;;;21.63;56.21;98788.53;10246277;28;1173;-67
2023/07/15 16:29:16;;;;;;;;;;;;;;;21.61;56.36;98788.69;10245184;28;1105;-68
2023/07/15 16:34:13;;;;;;;;;;;;;;;21.62;56.33;98787.72;10244991;28;1961;-67
2023/07/15 16:39:11;;;;;;;;;;;;;;;21.62;56.30;98794.81;10245483;28;833;-67
2023/07/15 16:44:07;;;;;;;;;;;;;;;21.63;56.27;98791.19;10244658;28;799;-67
2023/07/15 16:49:03;;;;;;;;;;;;;;;21.62;56.33;98779.75;10245725;28;948;-67
2023/07/15 16:53:59;;;;;;;;;;;;;;;21.63;56.22;98783.25;10244907;28;1898;-67
2023/07/15 16:58:55;;;;;;;;;;;;;;;21.63;56.46;98786.75;10244774;28;822;-67
2023/07/15 17:03:51;;;;;;;;;;;;;;;21.63;56.45;98789.38;10245288;28;939;-67
2023/07/15 17:08:47;;;;;;;;;;;;;;;21.64;56.24;98784.94;10243941;28;1000;-67
2023/07/15 17:13:42;;;;;;;;;;;;;;;21.63;56.29;98772.63;10244321;28;1898;-67
2023/07/15 17:18:38;;;;;;;;;;;;;;;21.64;56.42;98782.28;10243694;28;841;-67
2023/07/15 17:23:34;;;;;;;;;;;;;;;21.64;56.33;98767.22;10244846;28;1525;-67
2023/07/15 17:28:30;;;;;;;;;;;;;;;21.64;56.50;98772.53;10244229;28;909;-66
2023/07/15 17:33:26;;;;;;;;;;;;;;;21.65;56.32;98771.56;10243381;28;1989;-67
2023/07/15 17:38:22;;;;;;;;;;;;;;;21.69;56.65;98772.16;10243821;28;923;-67
2023/07/15 17:43:18;;;;;;;;;;;;;;;21.70;56.57;98773.88;10243435;28;1019;-70
2023/07/15 17:48:14;;;;;;;;;;;;;;;21.70;56.71;98781.00;10243605;28;859;-70
2023/07/15 17:53:09;;;;;;;;;;;;;;;21.69;56.52;98779.28;10243066;28;1902;-70
2023/07/15 17:58:05;;;;;;;;;;;;;;;21.67;56.33;98766.16;10243477;28;875;-72
2023/07/15 18:03:01;;;;;;;;;;;;;;;21.68;56.32;98770.50;10244198;28;783;-71
2023/07/15 18:07:57;;;;;;;;;;;;;;;21.69;56.46;98776.63;10243346;28;912;-70
2023/07/15 18:12:53;;;;;;;;;;;;;;;21.68;56.38;98767.84;10244190;28;1901;-70
2023/07/15 18:17:49;;;;;;;;;;;;;;;21.67;56.42;98764.34;10243100;28;771;-71
2023/07/15 18:22:45;;;;;;;;;;;;;;;21.68;56.52;98775.78;10242676;28;1201;-71
2023/07/15 18:27:41;;;;;;;;;;;;;;;21.66;56.46;98773.25;10243014;28;877;-70
2023/07/15 18:32:36;;;;;;;;;;;;;;;21.68;56.25;98783.75;10242764;28;1922;-71
2023/07/15 18:37:32;;;;;;;;;;;;;;;21.67;56.39;98793.53;10243368;28;869;-70
2023/07/15 18:42:28;;;;;;;;;;;;;;;21.68;56.48;98794.34;10248936;28;1023;-70
2023/07/15 18:47:24;;;;;;;;;;;;;;;21.69;56.59;98813.75;10249227;28;838;-71
2023/07/15 18:52:20;;;;;;;;;;;;;;;21.69;56.44;98827.03;10249200;28;908;-70
2023/07/15 18:57:16;;;;;;;;;;;;;;;21.69;56.49;98832.31;10249284;28;1883;-70
2023/07/15 19:02:12;;;;;;;;;;;;;;;21.69;56.47;98841.13;10249832;28;863;-70
2023/07/15 19:07:08;;;;;;;;;;;;;;;21.68;56.32;98852.72;10249027;28;1088;-71
2023/07/15 19:12:04;;;;;;;;;;;;;;;21.67;56.50;98853.69;10249496;28;775;-71
2023/07/15 19:16:59;;;;;;;;;;;;;;;21.67;56.49;98867.78;10248591;28;1938;-70
2023/07/15 19:21:55;;;;;;;;;;;;;;;21.68;56.39;98868.63;10248550;28;1375;-70
2023/07/15 19:26:52;;;;;;;;;;;;;;;21.69;56.63;98875.59;10248590;28;941;-71
2023/07/15 19:31:48;;;;;;;;;;;;;;;21.71;56.37;98875.50;10248037;28;914;-71
2023/07/15 19:36:43;;;;;;;;;;;;;;;21.70;56.58;98897.69;10247880;28;1910;-70
2023/07/15 19:41:39;;;;;;;;;;;;;;;21.69;56.46;98882.72;10247769;28;779;-70
2023/07/15 19:46:37;;;;;;;;;;;;;;;21.69;56.55;98912.75;10249037;28;880;-70
2023/07/15 19:51:32;;;;;;;;;;;;;;;21.70;56.56;98926.88;10246140;28;954;-70
2023/07/15 19:56:28;;;;;;;;;;;;;;;21.70;56.67;98935.66;10247047;28;1939;-71
2023/07/15 20:01:24;;;;;;;;;;;;;;;21.70;56.61;98913.59;10248065;28;795;-70
2023/07/15 20:06:20;;;;;;;;;;;;;;;21.69;56.56;98898.63;10246665;28;1023;-70
2023/07/15 20:11:16;;;;;;;;;;;;;;;21.69;56.54;98901.28;10246597;28;921;-70
2023/07/15 20:16:12;;;;;;;;;;;;;;;21.69;56.68;98917.19;10247171;28;1947;-70
2023/07/15 20:21:08;;;;;;;;;;;;;;;21.67;56.46;98904.91;10246925;28;1149;-70
2023/07/15 20:26:04;;;;;;;;;;;;;;;21.67;56.42;98875.72;10246245;28;857;-70
2023/07/15 20:30:59;;;;;;;;;;;;;;;21.67;56.59;98877.56;10246341;28;975;-70
2023/07/15 20:35:55;;;;;;;;;;;;;;;21.67;56.52;98883.69;10245024;28;1906;-70
2023/07/15 20:40:51;;;;;;;;;;;;;;;21.67;56.33;98882.84;10245495;28;801;-70
2023/07/15 20:45:47;;;;;;;;;;;;;;;21.67;56.30;98907.56;10245839;28;914;-70
2023/07/15 20:50:43;;;;;;;;;;;;;;;21.66;56.26;98892.59;10245116;28;871;-71
2023/07/15 20:55:39;;;;;;;;;;;;;;;21.66;56.11;98887.28;10245510;28;1894;-70
2023/07/15 21:00:35;;;;;;;;;;;;;;;21.66;56.11;98895.25;10244864;28;928;-70
2023/07/15 21:05:31;;;;;;;;;;;;;;;21.66;56.24;98913.81;10244245;28;795;-70
2023/07/15 21:10:27;;;;;;;;;;;;;;;21.67;56.19;98930.59;10244664;28;944;-70
2023/07/15 21:15:23;;;;;;;;;;;;;;;21.67;55.91;98946.50;10243763;28;1953;-70
2023/07/15 21:20:18;;;;;;;;;;;;;;;21.66;55.84;98958.06;10244153;28;1176;-71
2023/07/15 21:25:14;;;;;;;;;;;;;;;21.65;55.91;98970.47;10244227;28;763;-70
2023/07/15 21:30:10;;;;;;;;;;;;;;;21.65;55.96;98957.22;10244728;28;876;-71
2023/07/15 21:35:06;;;;;;;;;;;;;;;21.64;56.00;98942.28;10244544;28;1971;-70
2023/07/15 21:40:02;;;;;;;;;;;;;;;21.64;55.75;98947.56;10244507;28;860;-70
2023/07/15 21:44:58;;;;;;;;;;;;;;;21.64;55.25;98966.13;10243757;28;775;-70
2023/07/15 21:49:54;;;;;;;;;;;;;;;21.64;55.32;98958.19;10244323;28;924;-70
2023/07/15 21:54:49;;;;;;;;;;;;;;;21.64;55.39;98968.78;10244481;28;1924;-71
2023/07/15 21:59:45;;;;;;;;;;;;;;;21.64;55.22;98994.44;10243584;28;916;-70
2023/07/15 22:04:41;;;;;;;;;;;;;;;21.64;54.96;99018.31;10244090;28;813;-70
2023/07/15 22:09:37;;;;;;;;;;;;;;;21.63;55.26;99028.06;10243347;28;752;-70
2023/07/15 22:14:33;;;;;;;;;;;;;;;21.64;55.18;99028.91;10246118;28;1958;-70
2023/07/15 22:19:29;;;;;;;;;;;;;;;21.62;55.23;99050.25;10250882;28;802;-70
2023/07/15 22:24:25;;;;;;;;;;;;;;;21.63;55.22;99035.19;10250963;28;1248;-70
2023/07/15 22:29:20;;;;;;;;;;;;;;;21.62;55.26;99002.53;10251250;28;889;-70
2023/07/15 22:34:16;;;;;;;;;;;;;;;21.63;55.08;99029.88;10250855;28;1972;-70
2023/07/15 22:39:12;;;;;;;;;;;;;;;21.62;54.95;99022.91;10250101;28;862;-71
2023/07/15 22:44:08;;;;;;;;;;;;;;;21.62;55.08;99021.09;10249401;28;992;-70
2023/07/15 22:49:04;;;;;;;;;;;;;;;21.62;55.16;98993.72;10249819;28;817;-70
2023/07/15 22:54:00;;;;;;;;;;;;;;;21.62;55.32;98997.22;10232505;28;1902;-70
2023/07/15 22:58:56;;;;;;;;;;;;;;;21.62;55.03;99015.78;10249399;28;806;-71
2023/07/15 23:03:51;;;;;;;;;;;;;;;21.61;55.08;99061.84;10249550;28;893;-70
2023/07/15 23:08:47;;;;;;;;;;;;;;;21.63;55.13;99024.59;10248960;28;943;-71
2023/07/15 23:13:43;;;;;;;;;;;;;;;21.60;55.15;99025.66;10248260;28;1957;-70
2023/07/15 23:18:43;;;;;;;;;;;;;;;21.60;55.15;98951.38;10248096;28;1165;-70
2023/07/15 23:23:39;;;;;;;;;;;;;;;21.62;55.34;99044.97;10247838;28;1184;-70
2023/07/15 23:28:35;;;;;;;;;;;;;;;21.61;55.12;99061.84;10248666;28;947;-70
2023/07/15 23:33:31;;;;;;;;;;;;;;;21.62;55.34;99079.44;10248054;28;1973;-70
2023/07/15 23:38:27;;;;;;;;;;;;;;;21.62;55.29;99082.09;10248131;28;962;-70
2023/07/15 23:43:23;;;;;;;;;;;;;;;21.62;55.39;99068.81;10247794;28;862;-70
2023/07/15 23:48:19;;;;;;;;;;;;;;;21.62;55.27;99082.09;10246969;28;796;-70
2023/07/15 23:53:15;;;;;;;;;;;;;;;21.62;55.34;99082.09;10247816;28;1902;-70
2023/07/15 23:58:11;;;;;;;;;;;;;;;21.61;55.29;99077.75;10246626;28;937;-70
